sensor_id;sensor_type;location;lat;lon;timestamp;P1;durP1;ratioP1;P2;durP2;ratioP2
54438;SDS011;40347;53.848;27.498;2022-09-09T00:03:17;5.8;;;2.5;;
54438;SDS011;40347;53.848;27.498;2022-09-09T00:08:18;5;;;2.3;;
54438;SDS011;40347;53.848;27.498;2022-09-09T00:13:28;4.7;;;2.1;;
54438;SDS011;40347;53.848;27.498;2022-09-09T00:18:20;4.8;;;2.1;;
54438;SDS011;40347;53.848;27.498;2022-09-09T00:23:24;4.6;;;1.9;;
54438;SDS011;40347;53.848;27.498;2022-09-09T00:28:20;4.6;;;1.7;;
54438;SDS011;40347;53.848;27.498;2022-09-09T00:33:27;4.1;;;1.8;;
54438;SDS011;40347;53.848;27.498;2022-09-09T00:38:36;4.4;;;1.6;;
54438;SDS011;40347;53.848;27.498;2022-09-09T00:43:20;4;;;1.6;;
54438;SDS011;40347;53.848;27.498;2022-09-09T00:48:31;4;;;1.6;;
54438;SDS011;40347;53.848;27.498;2022-09-09T00:53:35;3.8;;;1.6;;
54438;SDS011;40347;53.848;27.498;2022-09-09T00:58:15;3.7;;;1.6;;
54438;SDS011;40347;53.848;27.498;2022-09-09T01:03:42;5.5;;;1.8;;
54438;SDS011;40347;53.848;27.498;2022-09-09T01:08:36;4.6;;;1.8;;
54438;SDS011;40347;53.848;27.498;2022-09-09T01:13:32;4.3;;;1.9;;
54438;SDS011;40347;53.848;27.498;2022-09-09T01:18:17;4.2;;;1.8;;
54438;SDS011;40347;53.848;27.498;2022-09-09T01:23:19;5.4;;;1.8;;
54438;SDS011;40347;53.848;27.498;2022-09-09T01:28:27;5.1;;;1.8;;
54438;SDS011;40347;53.848;27.498;2022-09-09T01:33:31;6.1;;;2;;
54438;SDS011;40347;53.848;27.498;2022-09-09T01:38:25;4.6;;;2;;
54438;SDS011;40347;53.848;27.498;2022-09-09T01:43:15;5.5;;;2;;
54438;SDS011;40347;53.848;27.498;2022-09-09T01:48:15;7.9;;;2.3;;
54438;SDS011;40347;53.848;27.498;2022-09-09T01:53:43;7.8;;;2.7;;
54438;SDS011;40347;53.848;27.498;2022-09-09T01:59:24;7.2;;;3.1;;
54438;SDS011;40347;53.848;27.498;2022-09-09T02:03:27;7;;;3.3;;
54438;SDS011;40347;53.848;27.498;2022-09-09T02:08:23;7.1;;;3.1;;
54438;SDS011;40347;53.848;27.498;2022-09-09T02:13:21;7;;;3.2;;
54438;SDS011;40347;53.848;27.498;2022-09-09T02:18:16;6.6;;;2.8;;
54438;SDS011;40347;53.848;27.498;2022-09-09T02:23:25;6.3;;;2.4;;
54438;SDS011;40347;53.848;27.498;2022-09-09T02:28:15;4.5;;;1.8;;
54438;SDS011;40347;53.848;27.498;2022-09-09T02:33:27;3.8;;;1.7;;
54438;SDS011;40347;53.848;27.498;2022-09-09T02:38:15;4.2;;;1.6;;
54438;SDS011;40347;53.848;27.498;2022-09-09T02:43:15;4.8;;;1.8;;
54438;SDS011;40347;53.848;27.498;2022-09-09T02:48:33;4.7;;;1.9;;
54438;SDS011;40347;53.848;27.498;2022-09-09T02:53:39;6.6;;;2.5;;
54438;SDS011;40347;53.848;27.498;2022-09-09T02:58:25;6.3;;;1.9;;
54438;SDS011;40347;53.848;27.498;2022-09-09T03:03:16;6.4;;;2.1;;
54438;SDS011;40347;53.848;27.498;2022-09-09T03:08:55;5;;;2;;
54438;SDS011;40347;53.848;27.498;2022-09-09T03:13:25;5.1;;;1.9;;
54438;SDS011;40347;53.848;27.498;2022-09-09T03:18:15;5;;;1.7;;
54438;SDS011;40347;53.848;27.498;2022-09-09T03:23:25;3.8;;;1.7;;
54438;SDS011;40347;53.848;27.498;2022-09-09T03:28:21;4.5;;;1.8;;
54438;SDS011;40347;53.848;27.498;2022-09-09T03:33:15;4.7;;;1.7;;
54438;SDS011;40347;53.848;27.498;2022-09-09T03:38:15;8.6;;;1.8;;
54438;SDS011;40347;53.848;27.498;2022-09-09T03:43:15;4.2;;;1.8;;
54438;SDS011;40347;53.848;27.498;2022-09-09T03:48:16;3.6;;;1.7;;
54438;SDS011;40347;53.848;27.498;2022-09-09T03:53:35;4.5;;;1.8;;
54438;SDS011;40347;53.848;27.498;2022-09-09T03:58:26;3.9;;;1.7;;
54438;SDS011;40347;53.848;27.498;2022-09-09T04:03:15;3.8;;;1.8;;
54438;SDS011;40347;53.848;27.498;2022-09-09T04:08:15;3.9;;;1.8;;
54438;SDS011;40347;53.848;27.498;2022-09-09T04:13:39;5.6;;;2.1;;
54438;SDS011;40347;53.848;27.498;2022-09-09T04:18:15;5.3;;;2.2;;
54438;SDS011;40347;53.848;27.498;2022-09-09T04:23:15;5.5;;;2.4;;
54438;SDS011;40347;53.848;27.498;2022-09-09T04:28:24;6.1;;;2;;
54438;SDS011;40347;53.848;27.498;2022-09-09T04:33:15;6;;;2;;
54438;SDS011;40347;53.848;27.498;2022-09-09T04:38:33;5.9;;;2.1;;
54438;SDS011;40347;53.848;27.498;2022-09-09T04:43:15;6.4;;;2.3;;
54438;SDS011;40347;53.848;27.498;2022-09-09T04:48:15;4.8;;;2.6;;
54438;SDS011;40347;53.848;27.498;2022-09-09T04:53:15;5.5;;;2.4;;
54438;SDS011;40347;53.848;27.498;2022-09-09T04:58:15;5.1;;;2.2;;
54438;SDS011;40347;53.848;27.498;2022-09-09T05:03:15;4.3;;;2.1;;
54438;SDS011;40347;53.848;27.498;2022-09-09T05:08:25;4.6;;;2.1;;
54438;SDS011;40347;53.848;27.498;2022-09-09T05:13:15;6.4;;;2.3;;
54438;SDS011;40347;53.848;27.498;2022-09-09T05:18:38;8.9;;;2.3;;
54438;SDS011;40347;53.848;27.498;2022-09-09T05:23:15;4.9;;;2.2;;
54438;SDS011;40347;53.848;27.498;2022-09-09T05:28:15;7.4;;;2;;
54438;SDS011;40347;53.848;27.498;2022-09-09T05:33:15;6.1;;;1.9;;
54438;SDS011;40347;53.848;27.498;2022-09-09T05:38:15;8.9;;;2.1;;
54438;SDS011;40347;53.848;27.498;2022-09-09T05:43:27;5.5;;;1.9;;
54438;SDS011;40347;53.848;27.498;2022-09-09T05:48:15;6.3;;;2.2;;
54438;SDS011;40347;53.848;27.498;2022-09-09T05:53:26;5.2;;;2;;
54438;SDS011;40347;53.848;27.498;2022-09-09T05:58:15;5.8;;;1.9;;
54438;SDS011;40347;53.848;27.498;2022-09-09T06:03:15;6.1;;;2.1;;
54438;SDS011;40347;53.848;27.498;2022-09-09T06:08:25;6.9;;;2;;
54438;SDS011;40347;53.848;27.498;2022-09-09T06:13:15;7.8;;;2;;
54438;SDS011;40347;53.848;27.498;2022-09-09T06:18:15;8.9;;;2.2;;
54438;SDS011;40347;53.848;27.498;2022-09-09T06:23:15;10.5;;;2.5;;
54438;SDS011;40347;53.848;27.498;2022-09-09T06:28:27;8.4;;;2.3;;
54438;SDS011;40347;53.848;27.498;2022-09-09T06:33:15;10.4;;;2.2;;
54438;SDS011;40347;53.848;27.498;2022-09-09T06:38:25;6.3;;;2.3;;
54438;SDS011;40347;53.848;27.498;2022-09-09T06:43:15;7.2;;;2.4;;
54438;SDS011;40347;53.848;27.498;2022-09-09T06:48:15;6.1;;;2.3;;
54438;SDS011;40347;53.848;27.498;2022-09-09T06:53:16;6.7;;;2.5;;
54438;SDS011;40347;53.848;27.498;2022-09-09T06:58:25;6.7;;;2.4;;
54438;SDS011;40347;53.848;27.498;2022-09-09T07:03:35;10.1;;;2.5;;
54438;SDS011;40347;53.848;27.498;2022-09-09T07:08:25;6.3;;;2.4;;
54438;SDS011;40347;53.848;27.498;2022-09-09T07:13:15;7.1;;;2.2;;
54438;SDS011;40347;53.848;27.498;2022-09-09T07:18:15;9.8;;;2.3;;
54438;SDS011;40347;53.848;27.498;2022-09-09T07:23:15;9.9;;;2.6;;
54438;SDS011;40347;53.848;27.498;2022-09-09T07:28:27;7.6;;;2.4;;
54438;SDS011;40347;53.848;27.498;2022-09-09T07:33:25;6.5;;;2.1;;
54438;SDS011;40347;53.848;27.498;2022-09-09T07:38:25;4.8;;;1.9;;
54438;SDS011;40347;53.848;27.498;2022-09-09T07:43:16;6.3;;;1.7;;
54438;SDS011;40347;53.848;27.498;2022-09-09T07:48:25;6.4;;;1.7;;
54438;SDS011;40347;53.848;27.498;2022-09-09T07:53:15;4;;;1.6;;
54438;SDS011;40347;53.848;27.498;2022-09-09T07:58:25;4.6;;;1.4;;
54438;SDS011;40347;53.848;27.498;2022-09-09T08:03:21;4.3;;;1.4;;
54438;SDS011;40347;53.848;27.498;2022-09-09T08:08:15;6.1;;;1.7;;
54438;SDS011;40347;53.848;27.498;2022-09-09T08:13:15;5.4;;;1.4;;
54438;SDS011;40347;53.848;27.498;2022-09-09T08:18:15;4;;;1.3;;
54438;SDS011;40347;53.848;27.498;2022-09-09T08:23:38;4.4;;;1.4;;
54438;SDS011;40347;53.848;27.498;2022-09-09T08:28:35;6.8;;;1.4;;
54438;SDS011;40347;53.848;27.498;2022-09-09T08:33:25;3.6;;;1.2;;
54438;SDS011;40347;53.848;27.498;2022-09-09T08:38:25;5.5;;;1.4;;
54438;SDS011;40347;53.848;27.498;2022-09-09T08:43:16;4.9;;;1.4;;
54438;SDS011;40347;53.848;27.498;2022-09-09T08:48:20;4.8;;;1.4;;
54438;SDS011;40347;53.848;27.498;2022-09-09T08:53:17;6.2;;;1.5;;
54438;SDS011;40347;53.848;27.498;2022-09-09T08:58:17;4.4;;;1.4;;
54438;SDS011;40347;53.848;27.498;2022-09-09T09:03:19;3.8;;;1.3;;
54438;SDS011;40347;53.848;27.498;2022-09-09T09:08:33;3.7;;;1.2;;
54438;SDS011;40347;53.848;27.498;2022-09-09T09:13:18;7.1;;;1.4;;
54438;SDS011;40347;53.848;27.498;2022-09-09T09:18:15;6;;;1.2;;
54438;SDS011;40347;53.848;27.498;2022-09-09T09:23:19;4.9;;;1.1;;
54438;SDS011;40347;53.848;27.498;2022-09-09T09:28:16;4.2;;;1;;
54438;SDS011;40347;53.848;27.498;2022-09-09T09:33:18;3.3;;;1.2;;
54438;SDS011;40347;53.848;27.498;2022-09-09T09:38:26;5.2;;;1.4;;
54438;SDS011;40347;53.848;27.498;2022-09-09T09:43:19;2;;;1.1;;
54438;SDS011;40347;53.848;27.498;2022-09-09T09:48:27;5.8;;;1.2;;
54438;SDS011;40347;53.848;27.498;2022-09-09T09:53:19;2.6;;;1.3;;
54438;SDS011;40347;53.848;27.498;2022-09-09T09:58:30;4;;;1.2;;
54438;SDS011;40347;53.848;27.498;2022-09-09T10:03:35;3.6;;;1.1;;
54438;SDS011;40347;53.848;27.498;2022-09-09T10:08:24;8.3;;;1.3;;
54438;SDS011;40347;53.848;27.498;2022-09-09T10:13:51;3.4;;;1.3;;
54438;SDS011;40347;53.848;27.498;2022-09-09T10:23:27;6.8;;;1.2;;
54438;SDS011;40347;53.848;27.498;2022-09-09T10:28:28;3;;;1.1;;
54438;SDS011;40347;53.848;27.498;2022-09-09T10:38:48;3.5;;;1;;
54438;SDS011;40347;53.848;27.498;2022-09-09T10:43:20;2.6;;;0.8;;
54438;SDS011;40347;53.848;27.498;2022-09-09T10:48:20;3.1;;;0.9;;
54438;SDS011;40347;53.848;27.498;2022-09-09T10:53:33;3.1;;;0.9;;
54438;SDS011;40347;53.848;27.498;2022-09-09T10:58:19;3.6;;;0.9;;
54438;SDS011;40347;53.848;27.498;2022-09-09T11:03:18;2.8;;;1;;
54438;SDS011;40347;53.848;27.498;2022-09-09T11:08:18;3.5;;;1;;
54438;SDS011;40347;53.848;27.498;2022-09-09T11:13:28;4.2;;;1;;
54438;SDS011;40347;53.848;27.498;2022-09-09T11:18:18;10.6;;;1.4;;
54438;SDS011;40347;53.848;27.498;2022-09-09T11:23:33;2.9;;;0.9;;
54438;SDS011;40347;53.848;27.498;2022-09-09T11:28:20;5.5;;;1;;
54438;SDS011;40347;53.848;27.498;2022-09-09T11:38:48;4.1;;;1;;
54438;SDS011;40347;53.848;27.498;2022-09-09T11:43:29;3.3;;;1.1;;
54438;SDS011;40347;53.848;27.498;2022-09-09T11:48:40;2.8;;;0.9;;
54438;SDS011;40347;53.848;27.498;2022-09-09T11:53:36;2.7;;;1;;
54438;SDS011;40347;53.848;27.498;2022-09-09T11:58:24;3.4;;;1.1;;
54438;SDS011;40347;53.848;27.498;2022-09-09T12:03:48;4.4;;;1.2;;
54438;SDS011;40347;53.848;27.498;2022-09-09T12:08:27;3.6;;;1;;
54438;SDS011;40347;53.848;27.498;2022-09-09T12:13:26;2.8;;;0.9;;
54438;SDS011;40347;53.848;27.498;2022-09-09T12:18:21;3.6;;;0.9;;
54438;SDS011;40347;53.848;27.498;2022-09-09T12:23:49;2.5;;;0.9;;
54438;SDS011;40347;53.848;27.498;2022-09-09T12:33:34;4;;;0.9;;
54438;SDS011;40347;53.848;27.498;2022-09-09T12:38:17;4.3;;;1;;
54438;SDS011;40347;53.848;27.498;2022-09-09T12:43:24;3.3;;;1;;
54438;SDS011;40347;53.848;27.498;2022-09-09T12:48:17;3;;;1;;
54438;SDS011;40347;53.848;27.498;2022-09-09T12:53:26;2.4;;;0.9;;
54438;SDS011;40347;53.848;27.498;2022-09-09T12:58:16;3.3;;;1.1;;
54438;SDS011;40347;53.848;27.498;2022-09-09T13:03:26;6.2;;;1.1;;
54438;SDS011;40347;53.848;27.498;2022-09-09T13:09:00;5.4;;;1.3;;
54438;SDS011;40347;53.848;27.498;2022-09-09T13:13:28;4.3;;;1.3;;
54438;SDS011;40347;53.848;27.498;2022-09-09T13:18:15;6.6;;;1.3;;
54438;SDS011;40347;53.848;27.498;2022-09-09T13:23:16;6.8;;;1.4;;
54438;SDS011;40347;53.848;27.498;2022-09-09T13:28:23;5.4;;;1.3;;
54438;SDS011;40347;53.848;27.498;2022-09-09T13:33:38;3.5;;;1.2;;
54438;SDS011;40347;53.848;27.498;2022-09-09T13:38:24;5.9;;;1.3;;
54438;SDS011;40347;53.848;27.498;2022-09-09T13:43:43;5.9;;;1.2;;
54438;SDS011;40347;53.848;27.498;2022-09-09T13:48:17;3.3;;;1.1;;
54438;SDS011;40347;53.848;27.498;2022-09-09T13:53:26;4.1;;;1;;
54438;SDS011;40347;53.848;27.498;2022-09-09T13:58:29;6.5;;;1.2;;
54438;SDS011;40347;53.848;27.498;2022-09-09T14:03:16;7.7;;;1.3;;
54438;SDS011;40347;53.848;27.498;2022-09-09T14:08:26;3;;;1.2;;
54438;SDS011;40347;53.848;27.498;2022-09-09T14:13:40;5;;;1.2;;
54438;SDS011;40347;53.848;27.498;2022-09-09T14:18:16;3.7;;;1.3;;
54438;SDS011;40347;53.848;27.498;2022-09-09T14:23:24;4.5;;;1.2;;
54438;SDS011;40347;53.848;27.498;2022-09-09T14:28:24;4.6;;;1.3;;
54438;SDS011;40347;53.848;27.498;2022-09-09T14:33:27;5.8;;;1.5;;
54438;SDS011;40347;53.848;27.498;2022-09-09T14:38:38;3.9;;;1.2;;
54438;SDS011;40347;53.848;27.498;2022-09-09T14:43:16;5.5;;;1.5;;
54438;SDS011;40347;53.848;27.498;2022-09-09T14:48:16;4.5;;;1.5;;
54438;SDS011;40347;53.848;27.498;2022-09-09T14:53:16;3.9;;;1.4;;
54438;SDS011;40347;53.848;27.498;2022-09-09T14:58:30;5.4;;;1.7;;
54438;SDS011;40347;53.848;27.498;2022-09-09T15:03:24;4.9;;;1.7;;
54438;SDS011;40347;53.848;27.498;2022-09-09T15:08:28;5;;;1.7;;
54438;SDS011;40347;53.848;27.498;2022-09-09T15:13:16;7;;;1.5;;
54438;SDS011;40347;53.848;27.498;2022-09-09T15:18:16;7.4;;;1.6;;
54438;SDS011;40347;53.848;27.498;2022-09-09T15:23:16;4.3;;;1.6;;
54438;SDS011;40347;53.848;27.498;2022-09-09T15:28:16;6.8;;;1.5;;
54438;SDS011;40347;53.848;27.498;2022-09-09T15:33:26;4.5;;;1.5;;
54438;SDS011;40347;53.848;27.498;2022-09-09T15:38:28;4.6;;;1.6;;
54438;SDS011;40347;53.848;27.498;2022-09-09T15:43:16;6.4;;;1.7;;
54438;SDS011;40347;53.848;27.498;2022-09-09T15:48:30;6.9;;;2.5;;
54438;SDS011;40347;53.848;27.498;2022-09-09T15:53:40;5.9;;;1.7;;
54438;SDS011;40347;53.848;27.498;2022-09-09T15:58:30;6.9;;;1.7;;
54438;SDS011;40347;53.848;27.498;2022-09-09T16:03:16;7.4;;;1.6;;
54438;SDS011;40347;53.848;27.498;2022-09-09T16:08:24;7.3;;;1.8;;
54438;SDS011;40347;53.848;27.498;2022-09-09T16:13:48;7.8;;;2.1;;
54438;SDS011;40347;53.848;27.498;2022-09-09T16:18:26;5.6;;;2.1;;
54438;SDS011;40347;53.848;27.498;2022-09-09T16:23:16;5.9;;;1.8;;
54438;SDS011;40347;53.848;27.498;2022-09-09T16:28:50;10.6;;;2.3;;
54438;SDS011;40347;53.848;27.498;2022-09-09T16:33:28;6.3;;;2;;
54438;SDS011;40347;53.848;27.498;2022-09-09T16:38:16;9.6;;;2.5;;
54438;SDS011;40347;53.848;27.498;2022-09-09T16:43:26;8.3;;;2.5;;
54438;SDS011;40347;53.848;27.498;2022-09-09T16:48:16;9.4;;;2.2;;
54438;SDS011;40347;53.848;27.498;2022-09-09T16:53:42;15;;;7.4;;
54438;SDS011;40347;53.848;27.498;2022-09-09T16:58:16;16.5;;;6.4;;
54438;SDS011;40347;53.848;27.498;2022-09-09T17:03:40;12.3;;;3.2;;
54438;SDS011;40347;53.848;27.498;2022-09-09T17:08:16;8.2;;;2.6;;
54438;SDS011;40347;53.848;27.498;2022-09-09T17:13:16;8.3;;;2.5;;
54438;SDS011;40347;53.848;27.498;2022-09-09T17:18:16;7.9;;;2.5;;
54438;SDS011;40347;53.848;27.498;2022-09-09T17:23:38;10.6;;;2.7;;
54438;SDS011;40347;53.848;27.498;2022-09-09T17:28:36;10.2;;;2.6;;
54438;SDS011;40347;53.848;27.498;2022-09-09T17:33:30;7.8;;;2.3;;
54438;SDS011;40347;53.848;27.498;2022-09-09T17:38:30;10.6;;;2.8;;
54438;SDS011;40347;53.848;27.498;2022-09-09T17:43:38;7.2;;;2.6;;
54438;SDS011;40347;53.848;27.498;2022-09-09T17:48:24;8.8;;;3.1;;
54438;SDS011;40347;53.848;27.498;2022-09-09T17:53:38;13.2;;;3;;
54438;SDS011;40347;53.848;27.498;2022-09-09T17:58:16;7.4;;;2.7;;
54438;SDS011;40347;53.848;27.498;2022-09-09T18:03:16;9.4;;;2.8;;
54438;SDS011;40347;53.848;27.498;2022-09-09T18:08:16;9.2;;;2.8;;
54438;SDS011;40347;53.848;27.498;2022-09-09T18:13:24;10.8;;;3.1;;
54438;SDS011;40347;53.848;27.498;2022-09-09T18:18:17;8.6;;;3.1;;
54438;SDS011;40347;53.848;27.498;2022-09-09T18:23:37;9.3;;;3.1;;
54438;SDS011;40347;53.848;27.498;2022-09-09T18:28:25;9.8;;;2.9;;
54438;SDS011;40347;53.848;27.498;2022-09-09T18:33:16;10.4;;;3;;
54438;SDS011;40347;53.848;27.498;2022-09-09T18:38:16;11.2;;;3.2;;
54438;SDS011;40347;53.848;27.498;2022-09-09T18:43:16;10.2;;;3.3;;
54438;SDS011;40347;53.848;27.498;2022-09-09T18:48:26;11.7;;;3.8;;
54438;SDS011;40347;53.848;27.498;2022-09-09T18:53:16;9.3;;;3.6;;
54438;SDS011;40347;53.848;27.498;2022-09-09T18:58:16;11.3;;;3.6;;
54438;SDS011;40347;53.848;27.498;2022-09-09T19:03:16;9.6;;;3.5;;
54438;SDS011;40347;53.848;27.498;2022-09-09T19:08:16;9.6;;;3.4;;
54438;SDS011;40347;53.848;27.498;2022-09-09T19:13:28;10.5;;;3.4;;
54438;SDS011;40347;53.848;27.498;2022-09-09T19:18:38;9.2;;;3.1;;
54438;SDS011;40347;53.848;27.498;2022-09-09T19:23:16;10.3;;;3.3;;
54438;SDS011;40347;53.848;27.498;2022-09-09T19:28:24;10.3;;;3.5;;
54438;SDS011;40347;53.848;27.498;2022-09-09T19:33:16;12.1;;;4.3;;
54438;SDS011;40347;53.848;27.498;2022-09-09T19:38:16;11.5;;;3.7;;
54438;SDS011;40347;53.848;27.498;2022-09-09T19:43:26;10.4;;;3.9;;
54438;SDS011;40347;53.848;27.498;2022-09-09T19:48:26;10.4;;;4;;
54438;SDS011;40347;53.848;27.498;2022-09-09T19:53:26;10.5;;;3.9;;
54438;SDS011;40347;53.848;27.498;2022-09-09T19:58:16;12;;;4.1;;
54438;SDS011;40347;53.848;27.498;2022-09-09T20:03:16;11.6;;;4;;
54438;SDS011;40347;53.848;27.498;2022-09-09T20:08:30;13;;;4.3;;
54438;SDS011;40347;53.848;27.498;2022-09-09T20:13:24;12;;;3.9;;
54438;SDS011;40347;53.848;27.498;2022-09-09T20:18:25;10.6;;;3.6;;
54438;SDS011;40347;53.848;27.498;2022-09-09T20:23:24;11.5;;;3.5;;
54438;SDS011;40347;53.848;27.498;2022-09-09T20:28:24;12.2;;;4;;
54438;SDS011;40347;53.848;27.498;2022-09-09T20:33:54;9.6;;;3.4;;
54438;SDS011;40347;53.848;27.498;2022-09-09T20:38:28;8.4;;;3.1;;
54438;SDS011;40347;53.848;27.498;2022-09-09T20:43:16;9;;;3;;
54438;SDS011;40347;53.848;27.498;2022-09-09T20:48:16;9.2;;;2.9;;
54438;SDS011;40347;53.848;27.498;2022-09-09T20:53:16;8.4;;;2.6;;
54438;SDS011;40347;53.848;27.498;2022-09-09T20:58:16;8.2;;;2.8;;
54438;SDS011;40347;53.848;27.498;2022-09-09T21:03:16;8.6;;;2.9;;
54438;SDS011;40347;53.848;27.498;2022-09-09T21:08:26;9.5;;;2.9;;
54438;SDS011;40347;53.848;27.498;2022-09-09T21:13:24;9.2;;;2.8;;
54438;SDS011;40347;53.848;27.498;2022-09-09T21:18:26;10.1;;;3;;
54438;SDS011;40347;53.848;27.498;2022-09-09T21:23:16;8;;;2.9;;
54438;SDS011;40347;53.848;27.498;2022-09-09T21:28:16;11;;;2.8;;
54438;SDS011;40347;53.848;27.498;2022-09-09T21:33:42;11.1;;;3;;
54438;SDS011;40347;53.848;27.498;2022-09-09T21:38:28;7.9;;;2.9;;
54438;SDS011;40347;53.848;27.498;2022-09-09T21:43:30;9.2;;;2.9;;
54438;SDS011;40347;53.848;27.498;2022-09-09T21:48:16;11;;;3;;
54438;SDS011;40347;53.848;27.498;2022-09-09T21:53:16;8.2;;;2.6;;
54438;SDS011;40347;53.848;27.498;2022-09-09T21:58:16;8.8;;;2.9;;
54438;SDS011;40347;53.848;27.498;2022-09-09T22:03:16;8.9;;;3.1;;
54438;SDS011;40347;53.848;27.498;2022-09-09T22:08:16;7.4;;;2.8;;
54438;SDS011;40347;53.848;27.498;2022-09-09T22:13:26;7.8;;;3.1;;
54438;SDS011;40347;53.848;27.498;2022-09-09T22:18:34;9.1;;;2.8;;
54438;SDS011;40347;53.848;27.498;2022-09-09T22:23:28;8.2;;;2.9;;
54438;SDS011;40347;53.848;27.498;2022-09-09T22:28:16;8.3;;;2.8;;
54438;SDS011;40347;53.848;27.498;2022-09-09T22:34:06;7.7;;;3.2;;
54438;SDS011;40347;53.848;27.498;2022-09-09T22:38:30;7.9;;;3;;
54438;SDS011;40347;53.848;27.498;2022-09-09T22:43:17;8.7;;;3.1;;
54438;SDS011;40347;53.848;27.498;2022-09-09T22:48:24;9.2;;;2.9;;
54438;SDS011;40347;53.848;27.498;2022-09-09T22:53:46;8.8;;;3.1;;
54438;SDS011;40347;53.848;27.498;2022-09-09T22:58:16;8.9;;;3.2;;
54438;SDS011;40347;53.848;27.498;2022-09-09T23:03:52;7.8;;;3.1;;
54438;SDS011;40347;53.848;27.498;2022-09-09T23:08:16;11.3;;;3.3;;
54438;SDS011;40347;53.848;27.498;2022-09-09T23:13:37;11;;;3.5;;
54438;SDS011;40347;53.848;27.498;2022-09-09T23:18:38;9.7;;;3.4;;
54438;SDS011;40347;53.848;27.498;2022-09-09T23:23:16;9.1;;;3.4;;
54438;SDS011;40347;53.848;27.498;2022-09-09T23:28:16;8.2;;;3.3;;
54438;SDS011;40347;53.848;27.498;2022-09-09T23:33:41;8.3;;;3.2;;
54438;SDS011;40347;53.848;27.498;2022-09-09T23:38:17;8.2;;;3.2;;
54438;SDS011;40347;53.848;27.498;2022-09-09T23:43:24;10.7;;;2.9;;
54438;SDS011;40347;53.848;27.498;2022-09-09T23:48:16;8.7;;;3.1;;
54438;SDS011;40347;53.848;27.498;2022-09-09T23:53:16;9.1;;;3.3;;
54438;SDS011;40347;53.848;27.498;2022-09-09T23:58:24;9.4;;;3.3;;
